sensor_id;sensor_type;location;lat;lon;timestamp;P1;durP1;ratioP1;P2;durP2;ratioP2
20397;SDS011;10358;49.590;11.030;2022-07-12T00:01:19;1.00;;;0.90;;
20397;SDS011;10358;49.590;11.030;2022-07-12T00:03:45;2.03;;;1.20;;
20397;SDS011;10358;49.590;11.030;2022-07-12T00:06:11;1.83;;;0.93;;
20397;SDS011;10358;49.590;11.030;2022-07-12T00:08:36;1.10;;;0.97;;
20397;SDS011;10358;49.590;11.030;2022-07-12T00:11:02;1.43;;;0.93;;
20397;SDS011;10358;49.590;11.030;2022-07-12T00:13:28;1.10;;;1.00;;
20397;SDS011;10358;49.590;11.030;2022-07-12T00:15:55;2.63;;;0.93;;
20397;SDS011;10358;49.590;11.030;2022-07-12T00:18:22;1.30;;;1.07;;
20397;SDS011;10358;49.590;11.030;2022-07-12T00:20:48;2.60;;;1.10;;
20397;SDS011;10358;49.590;11.030;2022-07-12T00:23:14;1.17;;;1.00;;
20397;SDS011;10358;49.590;11.030;2022-07-12T00:25:40;4.30;;;1.00;;
20397;SDS011;10358;49.590;11.030;2022-07-12T00:28:06;1.60;;;0.90;;
20397;SDS011;10358;49.590;11.030;2022-07-12T00:30:32;1.83;;;0.83;;
20397;SDS011;10358;49.590;11.030;2022-07-12T00:32:58;3.10;;;0.90;;
20397;SDS011;10358;49.590;11.030;2022-07-12T00:35:23;2.80;;;1.03;;
20397;SDS011;10358;49.590;11.030;2022-07-12T00:37:49;1.87;;;1.10;;
20397;SDS011;10358;49.590;11.030;2022-07-12T00:40:14;3.30;;;1.00;;
20397;SDS011;10358;49.590;11.030;2022-07-12T00:42:40;1.00;;;0.90;;
20397;SDS011;10358;49.590;11.030;2022-07-12T00:45:06;4.17;;;1.10;;
20397;SDS011;10358;49.590;11.030;2022-07-12T00:47:33;4.27;;;1.00;;
20397;SDS011;10358;49.590;11.030;2022-07-12T00:50:08;4.20;;;1.10;;
20397;SDS011;10358;49.590;11.030;2022-07-12T00:52:36;1.10;;;1.00;;
20397;SDS011;10358;49.590;11.030;2022-07-12T00:55:05;2.53;;;1.10;;
20397;SDS011;10358;49.590;11.030;2022-07-12T00:57:33;1.30;;;1.00;;
20397;SDS011;10358;49.590;11.030;2022-07-12T01:00:03;1.17;;;1.00;;
20397;SDS011;10358;49.590;11.030;2022-07-12T01:02:32;1.17;;;1.00;;
20397;SDS011;10358;49.590;11.030;2022-07-12T01:04:58;0.87;;;0.87;;
20397;SDS011;10358;49.590;11.030;2022-07-12T01:07:25;1.70;;;0.97;;
20397;SDS011;10358;49.590;11.030;2022-07-12T01:09:51;6.67;;;0.90;;
20397;SDS011;10358;49.590;11.030;2022-07-12T01:12:21;1.07;;;0.97;;
20397;SDS011;10358;49.590;11.030;2022-07-12T01:14:48;1.57;;;1.00;;
20397;SDS011;10358;49.590;11.030;2022-07-12T01:17:15;1.37;;;1.10;;
20397;SDS011;10358;49.590;11.030;2022-07-12T01:19:49;4.33;;;1.43;;
20397;SDS011;10358;49.590;11.030;2022-07-12T01:22:17;3.00;;;1.20;;
20397;SDS011;10358;49.590;11.030;2022-07-12T01:24:43;2.97;;;1.70;;
20397;SDS011;10358;49.590;11.030;2022-07-12T01:27:10;2.00;;;1.30;;
20397;SDS011;10358;49.590;11.030;2022-07-12T01:29:37;1.77;;;1.30;;
20397;SDS011;10358;49.590;11.030;2022-07-12T01:32:03;5.27;;;1.70;;
20397;SDS011;10358;49.590;11.030;2022-07-12T01:34:52;1.97;;;1.50;;
20397;SDS011;10358;49.590;11.030;2022-07-12T01:37:22;1.20;;;1.10;;
20397;SDS011;10358;49.590;11.030;2022-07-12T01:39:50;1.40;;;1.03;;
20397;SDS011;10358;49.590;11.030;2022-07-12T01:42:20;1.80;;;0.97;;
20397;SDS011;10358;49.590;11.030;2022-07-12T01:44:48;1.20;;;1.07;;
20397;SDS011;10358;49.590;11.030;2022-07-12T01:47:14;1.57;;;1.00;;
20397;SDS011;10358;49.590;11.030;2022-07-12T01:49:40;2.33;;;1.00;;
20397;SDS011;10358;49.590;11.030;2022-07-12T01:52:06;1.47;;;1.10;;
20397;SDS011;10358;49.590;11.030;2022-07-12T01:54:31;1.23;;;1.10;;
20397;SDS011;10358;49.590;11.030;2022-07-12T01:56:58;2.30;;;1.00;;
20397;SDS011;10358;49.590;11.030;2022-07-12T01:59:24;4.17;;;1.50;;
20397;SDS011;10358;49.590;11.030;2022-07-12T02:01:49;4.13;;;2.00;;
20397;SDS011;10358;49.590;11.030;2022-07-12T02:04:15;4.53;;;1.50;;
20397;SDS011;10358;49.590;11.030;2022-07-12T02:06:42;3.47;;;1.53;;
20397;SDS011;10358;49.590;11.030;2022-07-12T02:09:09;1.40;;;1.20;;
20397;SDS011;10358;49.590;11.030;2022-07-12T02:11:35;3.30;;;1.20;;
20397;SDS011;10358;49.590;11.030;2022-07-12T02:14:00;2.20;;;1.10;;
20397;SDS011;10358;49.590;11.030;2022-07-12T02:16:26;1.87;;;1.43;;
20397;SDS011;10358;49.590;11.030;2022-07-12T02:18:51;1.67;;;1.30;;
20397;SDS011;10358;49.590;11.030;2022-07-12T02:21:17;1.53;;;1.30;;
20397;SDS011;10358;49.590;11.030;2022-07-12T02:23:42;1.43;;;1.00;;
20397;SDS011;10358;49.590;11.030;2022-07-12T02:26:08;6.73;;;1.00;;
20397;SDS011;10358;49.590;11.030;2022-07-12T02:28:33;3.73;;;1.20;;
20397;SDS011;10358;49.590;11.030;2022-07-12T02:30:59;2.43;;;1.10;;
20397;SDS011;10358;49.590;11.030;2022-07-12T02:33:24;1.23;;;1.00;;
20397;SDS011;10358;49.590;11.030;2022-07-12T02:35:50;1.27;;;0.80;;
20397;SDS011;10358;49.590;11.030;2022-07-12T02:38:16;2.30;;;1.10;;
20397;SDS011;10358;49.590;11.030;2022-07-12T02:40:42;1.33;;;0.93;;
20397;SDS011;10358;49.590;11.030;2022-07-12T02:43:22;2.27;;;1.17;;
20397;SDS011;10358;49.590;11.030;2022-07-12T02:45:51;4.40;;;2.93;;
20397;SDS011;10358;49.590;11.030;2022-07-12T02:48:18;4.20;;;2.67;;
20397;SDS011;10358;49.590;11.030;2022-07-12T02:50:44;6.13;;;3.10;;
20397;SDS011;10358;49.590;11.030;2022-07-12T02:53:09;7.20;;;4.20;;
20397;SDS011;10358;49.590;11.030;2022-07-12T02:55:36;2.80;;;1.90;;
20397;SDS011;10358;49.590;11.030;2022-07-12T02:58:02;1.73;;;1.30;;
20397;SDS011;10358;49.590;11.030;2022-07-12T03:00:30;2.17;;;1.10;;
20397;SDS011;10358;49.590;11.030;2022-07-12T03:02:56;1.80;;;0.90;;
20397;SDS011;10358;49.590;11.030;2022-07-12T03:05:22;1.97;;;1.20;;
20397;SDS011;10358;49.590;11.030;2022-07-12T03:07:47;1.00;;;0.90;;
20397;SDS011;10358;49.590;11.030;2022-07-12T03:10:13;0.97;;;0.90;;
20397;SDS011;10358;49.590;11.030;2022-07-12T03:12:39;2.63;;;1.00;;
20397;SDS011;10358;49.590;11.030;2022-07-12T03:15:05;1.23;;;1.10;;
20397;SDS011;10358;49.590;11.030;2022-07-12T03:17:32;1.90;;;0.90;;
20397;SDS011;10358;49.590;11.030;2022-07-12T03:19:58;2.63;;;1.10;;
20397;SDS011;10358;49.590;11.030;2022-07-12T03:22:24;1.77;;;1.23;;
20397;SDS011;10358;49.590;11.030;2022-07-12T03:24:49;2.50;;;1.00;;
20397;SDS011;10358;49.590;11.030;2022-07-12T03:27:16;1.27;;;0.93;;
20397;SDS011;10358;49.590;11.030;2022-07-12T03:29:42;1.50;;;1.10;;
20397;SDS011;10358;49.590;11.030;2022-07-12T03:32:07;1.80;;;1.00;;
20397;SDS011;10358;49.590;11.030;2022-07-12T03:34:33;1.40;;;1.10;;
20397;SDS011;10358;49.590;11.030;2022-07-12T03:36:59;3.17;;;1.03;;
20397;SDS011;10358;49.590;11.030;2022-07-12T03:39:25;1.10;;;1.00;;
20397;SDS011;10358;49.590;11.030;2022-07-12T03:41:51;2.33;;;1.20;;
20397;SDS011;10358;49.590;11.030;2022-07-12T03:44:16;2.07;;;0.93;;
20397;SDS011;10358;49.590;11.030;2022-07-12T03:46:42;2.23;;;1.30;;
20397;SDS011;10358;49.590;11.030;2022-07-12T03:49:07;1.93;;;1.40;;
20397;SDS011;10358;49.590;11.030;2022-07-12T03:51:33;1.30;;;1.20;;
20397;SDS011;10358;49.590;11.030;2022-07-12T03:53:58;1.20;;;1.00;;
20397;SDS011;10358;49.590;11.030;2022-07-12T03:56:24;1.27;;;1.00;;
20397;SDS011;10358;49.590;11.030;2022-07-12T03:59:09;1.27;;;1.10;;
20397;SDS011;10358;49.590;11.030;2022-07-12T04:01:34;1.10;;;1.00;;
20397;SDS011;10358;49.590;11.030;2022-07-12T04:04:00;2.97;;;1.10;;
20397;SDS011;10358;49.590;11.030;2022-07-12T04:06:26;1.57;;;1.00;;
20397;SDS011;10358;49.590;11.030;2022-07-12T04:08:52;1.10;;;1.00;;
20397;SDS011;10358;49.590;11.030;2022-07-12T04:11:17;1.17;;;1.07;;
20397;SDS011;10358;49.590;11.030;2022-07-12T04:13:43;2.10;;;1.10;;
20397;SDS011;10358;49.590;11.030;2022-07-12T04:16:08;1.70;;;1.00;;
20397;SDS011;10358;49.590;11.030;2022-07-12T04:18:34;1.27;;;1.17;;
20397;SDS011;10358;49.590;11.030;2022-07-12T04:21:00;4.23;;;1.27;;
20397;SDS011;10358;49.590;11.030;2022-07-12T04:23:25;2.97;;;1.10;;
20397;SDS011;10358;49.590;11.030;2022-07-12T04:25:51;2.17;;;1.00;;
20397;SDS011;10358;49.590;11.030;2022-07-12T04:28:17;1.10;;;1.00;;
20397;SDS011;10358;49.590;11.030;2022-07-12T04:30:42;1.90;;;1.20;;
20397;SDS011;10358;49.590;11.030;2022-07-12T04:33:09;2.53;;;1.10;;
20397;SDS011;10358;49.590;11.030;2022-07-12T04:35:35;3.73;;;2.47;;
20397;SDS011;10358;49.590;11.030;2022-07-12T04:38:01;4.33;;;2.80;;
20397;SDS011;10358;49.590;11.030;2022-07-12T04:40:27;6.00;;;3.20;;
20397;SDS011;10358;49.590;11.030;2022-07-12T04:42:53;5.30;;;2.80;;
20397;SDS011;10358;49.590;11.030;2022-07-12T04:45:18;3.13;;;2.10;;
20397;SDS011;10358;49.590;11.030;2022-07-12T04:47:44;2.77;;;1.30;;
20397;SDS011;10358;49.590;11.030;2022-07-12T04:50:09;3.00;;;1.10;;
20397;SDS011;10358;49.590;11.030;2022-07-12T04:52:36;1.80;;;1.30;;
20397;SDS011;10358;49.590;11.030;2022-07-12T04:55:02;4.53;;;1.30;;
20397;SDS011;10358;49.590;11.030;2022-07-12T04:57:27;1.97;;;1.50;;
20397;SDS011;10358;49.590;11.030;2022-07-12T04:59:56;4.00;;;1.37;;
20397;SDS011;10358;49.590;11.030;2022-07-12T05:02:21;2.33;;;1.40;;
20397;SDS011;10358;49.590;11.030;2022-07-12T05:04:47;3.90;;;1.60;;
20397;SDS011;10358;49.590;11.030;2022-07-12T05:07:13;2.93;;;1.60;;
20397;SDS011;10358;49.590;11.030;2022-07-12T05:09:41;2.83;;;2.13;;
20397;SDS011;10358;49.590;11.030;2022-07-12T05:12:07;2.30;;;2.10;;
20397;SDS011;10358;49.590;11.030;2022-07-12T05:14:33;2.53;;;2.00;;
20397;SDS011;10358;49.590;11.030;2022-07-12T05:17:02;3.43;;;2.23;;
20397;SDS011;10358;49.590;11.030;2022-07-12T05:19:27;2.33;;;2.00;;
20397;SDS011;10358;49.590;11.030;2022-07-12T05:21:53;4.43;;;2.10;;
20397;SDS011;10358;49.590;11.030;2022-07-12T05:24:19;4.90;;;2.20;;
20397;SDS011;10358;49.590;11.030;2022-07-12T05:26:44;3.37;;;2.30;;
20397;SDS011;10358;49.590;11.030;2022-07-12T05:29:10;3.90;;;2.30;;
20397;SDS011;10358;49.590;11.030;2022-07-12T05:31:36;3.70;;;2.50;;
20397;SDS011;10358;49.590;11.030;2022-07-12T05:34:01;3.30;;;2.30;;
20397;SDS011;10358;49.590;11.030;2022-07-12T05:36:27;4.15;;;2.67;;
20397;SDS011;10358;49.590;11.030;2022-07-12T05:38:53;3.25;;;2.38;;
20397;SDS011;10358;49.590;11.030;2022-07-12T05:41:18;3.77;;;2.30;;
20397;SDS011;10358;49.590;11.030;2022-07-12T05:43:44;4.17;;;2.50;;
20397;SDS011;10358;49.590;11.030;2022-07-12T05:46:10;3.58;;;2.55;;
20397;SDS011;10358;49.590;11.030;2022-07-12T05:48:36;7.15;;;2.25;;
20397;SDS011;10358;49.590;11.030;2022-07-12T05:51:02;3.83;;;2.40;;
20397;SDS011;10358;49.590;11.030;2022-07-12T05:53:47;6.57;;;2.65;;
20397;SDS011;10358;49.590;11.030;2022-07-12T05:56:13;5.35;;;2.70;;
20397;SDS011;10358;49.590;11.030;2022-07-12T05:58:38;5.43;;;2.60;;
20397;SDS011;10358;49.590;11.030;2022-07-12T06:01:04;3.85;;;2.15;;
20397;SDS011;10358;49.590;11.030;2022-07-12T06:03:30;5.18;;;2.58;;
20397;SDS011;10358;49.590;11.030;2022-07-12T06:05:56;5.90;;;2.70;;
20397;SDS011;10358;49.590;11.030;2022-07-12T06:08:22;4.90;;;2.38;;
20397;SDS011;10358;49.590;11.030;2022-07-12T06:10:48;3.47;;;2.28;;
20397;SDS011;10358;49.590;11.030;2022-07-12T06:13:13;5.82;;;2.42;;
20397;SDS011;10358;49.590;11.030;2022-07-12T06:15:39;3.78;;;2.35;;
20397;SDS011;10358;49.590;11.030;2022-07-12T06:18:04;6.32;;;2.50;;
20397;SDS011;10358;49.590;11.030;2022-07-12T06:20:30;4.75;;;2.75;;
20397;SDS011;10358;49.590;11.030;2022-07-12T06:22:56;8.15;;;2.70;;
20397;SDS011;10358;49.590;11.030;2022-07-12T06:25:22;4.47;;;2.28;;
20397;SDS011;10358;49.590;11.030;2022-07-12T06:27:48;6.93;;;2.10;;
20397;SDS011;10358;49.590;11.030;2022-07-12T06:30:15;3.90;;;2.20;;
20397;SDS011;10358;49.590;11.030;2022-07-12T06:32:42;3.90;;;2.17;;
20397;SDS011;10358;49.590;11.030;2022-07-12T06:35:08;1.95;;;1.48;;
20397;SDS011;10358;49.590;11.030;2022-07-12T06:37:34;1.80;;;1.60;;
20397;SDS011;10358;49.590;11.030;2022-07-12T06:39:59;5.43;;;1.60;;
20397;SDS011;10358;49.590;11.030;2022-07-12T06:42:25;2.58;;;1.42;;
20397;SDS011;10358;49.590;11.030;2022-07-12T06:44:50;2.92;;;1.80;;
20397;SDS011;10358;49.590;11.030;2022-07-12T06:47:16;4.40;;;1.60;;
20397;SDS011;10358;49.590;11.030;2022-07-12T06:49:42;2.03;;;1.33;;
20397;SDS011;10358;49.590;11.030;2022-07-12T06:52:07;4.25;;;1.60;;
20397;SDS011;10358;49.590;11.030;2022-07-12T06:54:33;4.55;;;1.40;;
20397;SDS011;10358;49.590;11.030;2022-07-12T06:56:58;1.77;;;1.40;;
20397;SDS011;10358;49.590;11.030;2022-07-12T06:59:24;2.47;;;1.50;;
20397;SDS011;10358;49.590;11.030;2022-07-12T07:01:50;1.85;;;1.50;;
20397;SDS011;10358;49.590;11.030;2022-07-12T07:04:17;1.73;;;1.50;;
20397;SDS011;10358;49.590;11.030;2022-07-12T07:06:42;2.08;;;1.70;;
20397;SDS011;10358;49.590;11.030;2022-07-12T07:09:08;2.08;;;1.60;;
20397;SDS011;10358;49.590;11.030;2022-07-12T07:11:34;3.22;;;1.60;;
20397;SDS011;10358;49.590;11.030;2022-07-12T07:14:00;3.13;;;1.60;;
20397;SDS011;10358;49.590;11.030;2022-07-12T07:16:26;2.72;;;1.60;;
20397;SDS011;10358;49.590;11.030;2022-07-12T07:18:51;2.42;;;1.60;;
20397;SDS011;10358;49.590;11.030;2022-07-12T07:21:17;5.32;;;1.67;;
20397;SDS011;10358;49.590;11.030;2022-07-12T07:23:42;3.22;;;1.23;;
20397;SDS011;10358;49.590;11.030;2022-07-12T07:26:08;1.80;;;1.40;;
20397;SDS011;10358;49.590;11.030;2022-07-12T07:28:34;3.45;;;1.45;;
20397;SDS011;10358;49.590;11.030;2022-07-12T07:31:19;1.63;;;1.30;;
20397;SDS011;10358;49.590;11.030;2022-07-12T07:33:45;1.40;;;1.15;;
20397;SDS011;10358;49.590;11.030;2022-07-12T07:36:11;1.75;;;1.17;;
20397;SDS011;10358;49.590;11.030;2022-07-12T07:38:36;4.63;;;1.55;;
20397;SDS011;10358;49.590;11.030;2022-07-12T07:41:02;1.75;;;1.20;;
20397;SDS011;10358;49.590;11.030;2022-07-12T07:43:27;1.50;;;1.20;;
20397;SDS011;10358;49.590;11.030;2022-07-12T07:45:53;5.53;;;1.30;;
20397;SDS011;10358;49.590;11.030;2022-07-12T07:48:19;2.60;;;1.25;;
20397;SDS011;10358;49.590;11.030;2022-07-12T07:50:45;1.70;;;1.10;;
20397;SDS011;10358;49.590;11.030;2022-07-12T07:53:10;1.42;;;1.25;;
20397;SDS011;10358;49.590;11.030;2022-07-12T07:55:36;2.85;;;1.23;;
20397;SDS011;10358;49.590;11.030;2022-07-12T07:58:02;1.70;;;1.20;;
20397;SDS011;10358;49.590;11.030;2022-07-12T08:00:28;1.80;;;1.25;;
20397;SDS011;10358;49.590;11.030;2022-07-12T08:02:57;2.45;;;1.23;;
20397;SDS011;10358;49.590;11.030;2022-07-12T08:05:23;1.88;;;1.10;;
20397;SDS011;10358;49.590;11.030;2022-07-12T08:07:49;4.05;;;1.10;;
20397;SDS011;10358;49.590;11.030;2022-07-12T08:10:15;2.05;;;1.30;;
20397;SDS011;10358;49.590;11.030;2022-07-12T08:12:40;3.47;;;1.20;;
20397;SDS011;10358;49.590;11.030;2022-07-12T08:15:06;3.22;;;1.08;;
20397;SDS011;10358;49.590;11.030;2022-07-12T08:17:32;1.55;;;1.00;;
20397;SDS011;10358;49.590;11.030;2022-07-12T08:19:58;2.03;;;1.17;;
20397;SDS011;10358;49.590;11.030;2022-07-12T08:22:23;1.50;;;1.00;;
20397;SDS011;10358;49.590;11.030;2022-07-12T08:24:49;1.13;;;1.00;;
20397;SDS011;10358;49.590;11.030;2022-07-12T08:27:15;1.88;;;1.30;;
20397;SDS011;10358;49.590;11.030;2022-07-12T08:29:41;2.47;;;1.30;;
20397;SDS011;10358;49.590;11.030;2022-07-12T08:32:06;1.42;;;1.27;;
20397;SDS011;10358;49.590;11.030;2022-07-12T08:34:33;1.80;;;1.02;;
20397;SDS011;10358;49.590;11.030;2022-07-12T08:36:58;1.42;;;1.10;;
20397;SDS011;10358;49.590;11.030;2022-07-12T08:39:24;3.47;;;1.20;;
20397;SDS011;10358;49.590;11.030;2022-07-12T08:41:50;3.40;;;0.90;;
20397;SDS011;10358;49.590;11.030;2022-07-12T08:44:15;3.55;;;1.00;;
20397;SDS011;10358;49.590;11.030;2022-07-12T08:46:41;1.20;;;0.90;;
20397;SDS011;10358;49.590;11.030;2022-07-12T08:49:06;2.58;;;1.10;;
20397;SDS011;10358;49.590;11.030;2022-07-12T08:51:32;1.10;;;1.00;;
20397;SDS011;10358;49.590;11.030;2022-07-12T08:54:05;2.17;;;0.90;;
20397;SDS011;10358;49.590;11.030;2022-07-12T08:56:32;1.27;;;1.08;;
20397;SDS011;10358;49.590;11.030;2022-07-12T08:59:12;2.47;;;1.05;;
20397;SDS011;10358;49.590;11.030;2022-07-12T09:01:39;1.23;;;0.90;;
20397;SDS011;10358;49.590;11.030;2022-07-12T09:04:17;1.63;;;0.98;;
20397;SDS011;10358;49.590;11.030;2022-07-12T09:06:44;2.28;;;1.00;;
20397;SDS011;10358;49.590;11.030;2022-07-12T09:09:11;2.60;;;1.10;;
20397;SDS011;10358;49.590;11.030;2022-07-12T09:11:49;1.40;;;1.10;;
20397;SDS011;10358;49.590;11.030;2022-07-12T09:14:17;1.00;;;0.90;;
20397;SDS011;10358;49.590;11.030;2022-07-12T09:16:44;1.83;;;1.00;;
20397;SDS011;10358;49.590;11.030;2022-07-12T09:19:23;1.55;;;0.95;;
20397;SDS011;10358;49.590;11.030;2022-07-12T09:21:50;2.40;;;1.10;;
20397;SDS011;10358;49.590;11.030;2022-07-12T09:24:17;1.02;;;0.80;;
20397;SDS011;10358;49.590;11.030;2022-07-12T09:26:43;1.42;;;0.90;;
20397;SDS011;10358;49.590;11.030;2022-07-12T09:29:11;1.55;;;0.70;;
20397;SDS011;10358;49.590;11.030;2022-07-12T09:31:38;1.13;;;0.80;;
20397;SDS011;10358;49.590;11.030;2022-07-12T09:34:05;2.33;;;0.80;;
20397;SDS011;10358;49.590;11.030;2022-07-12T09:36:55;0.80;;;0.80;;
20397;SDS011;10358;49.590;11.030;2022-07-12T09:39:22;0.90;;;0.82;;
20397;SDS011;10358;49.590;11.030;2022-07-12T09:41:49;2.30;;;0.88;;
20397;SDS011;10358;49.590;11.030;2022-07-12T09:44:15;1.00;;;0.88;;
20397;SDS011;10358;49.590;11.030;2022-07-12T09:46:43;2.08;;;0.90;;
20397;SDS011;10358;49.590;11.030;2022-07-12T09:49:09;2.17;;;1.00;;
20397;SDS011;10358;49.590;11.030;2022-07-12T09:51:35;0.63;;;0.63;;
20397;SDS011;10358;49.590;11.030;2022-07-12T09:54:03;1.20;;;0.80;;
20397;SDS011;10358;49.590;11.030;2022-07-12T09:56:31;0.65;;;0.60;;
20397;SDS011;10358;49.590;11.030;2022-07-12T09:59:00;1.17;;;0.80;;
20397;SDS011;10358;49.590;11.030;2022-07-12T10:01:26;3.83;;;0.88;;
20397;SDS011;10358;49.590;11.030;2022-07-12T10:03:56;2.35;;;0.73;;
20397;SDS011;10358;49.590;11.030;2022-07-12T10:06:28;0.82;;;0.80;;
20397;SDS011;10358;49.590;11.030;2022-07-12T10:08:55;0.70;;;0.68;;
20397;SDS011;10358;49.590;11.030;2022-07-12T10:11:21;1.08;;;0.68;;
20397;SDS011;10358;49.590;11.030;2022-07-12T10:13:48;0.95;;;0.77;;
20397;SDS011;10358;49.590;11.030;2022-07-12T10:16:15;2.75;;;0.70;;
20397;SDS011;10358;49.590;11.030;2022-07-12T10:18:43;1.02;;;0.70;;
20397;SDS011;10358;49.590;11.030;2022-07-12T10:21:18;0.70;;;0.70;;
20397;SDS011;10358;49.590;11.030;2022-07-12T10:23:46;1.52;;;0.80;;
20397;SDS011;10358;49.590;11.030;2022-07-12T10:31:33;0.77;;;0.75;;
20397;SDS011;10358;49.590;11.030;2022-07-12T10:34:21;1.40;;;0.80;;
20397;SDS011;10358;49.590;11.030;2022-07-12T10:39:23;0.70;;;0.70;;
20397;SDS011;10358;49.590;11.030;2022-07-12T10:44:38;1.48;;;0.75;;
20397;SDS011;10358;49.590;11.030;2022-07-12T10:47:07;1.25;;;0.73;;
20397;SDS011;10358;49.590;11.030;2022-07-12T10:49:33;1.02;;;0.80;;
20397;SDS011;10358;49.590;11.030;2022-07-12T10:54:36;0.85;;;0.80;;
20397;SDS011;10358;49.590;11.030;2022-07-12T10:57:04;1.23;;;0.77;;
20397;SDS011;10358;49.590;11.030;2022-07-12T10:59:33;1.80;;;1.05;;
20397;SDS011;10358;49.590;11.030;2022-07-12T11:01:59;1.30;;;0.93;;
20397;SDS011;10358;49.590;11.030;2022-07-12T11:04:25;0.98;;;0.80;;
20397;SDS011;10358;49.590;11.030;2022-07-12T11:06:55;1.88;;;0.80;;
20397;SDS011;10358;49.590;11.030;2022-07-12T11:09:22;0.98;;;0.80;;
20397;SDS011;10358;49.590;11.030;2022-07-12T11:11:49;1.48;;;0.80;;
20397;SDS011;10358;49.590;11.030;2022-07-12T11:14:22;0.70;;;0.70;;
20397;SDS011;10358;49.590;11.030;2022-07-12T11:16:48;1.13;;;0.85;;
20397;SDS011;10358;49.590;11.030;2022-07-12T11:19:20;0.60;;;0.60;;
20397;SDS011;10358;49.590;11.030;2022-07-12T11:21:53;0.82;;;0.80;;
20397;SDS011;10358;49.590;11.030;2022-07-12T11:24:23;1.23;;;0.90;;
20397;SDS011;10358;49.590;11.030;2022-07-12T11:26:50;1.58;;;0.77;;
20397;SDS011;10358;49.590;11.030;2022-07-12T11:29:17;1.20;;;0.80;;
20397;SDS011;10358;49.590;11.030;2022-07-12T11:31:44;0.70;;;0.70;;
20397;SDS011;10358;49.590;11.030;2022-07-12T11:34:23;3.30;;;0.93;;
20397;SDS011;10358;49.590;11.030;2022-07-12T11:36:51;1.92;;;0.90;;
20397;SDS011;10358;49.590;11.030;2022-07-12T11:39:29;1.42;;;0.80;;
20397;SDS011;10358;49.590;11.030;2022-07-12T11:41:59;0.80;;;0.70;;
20397;SDS011;10358;49.590;11.030;2022-07-12T11:47:14;1.83;;;0.70;;
20397;SDS011;10358;49.590;11.030;2022-07-12T11:49:43;0.82;;;0.82;;
20397;SDS011;10358;49.590;11.030;2022-07-12T11:52:14;1.13;;;0.77;;
20397;SDS011;10358;49.590;11.030;2022-07-12T11:54:42;0.70;;;0.70;;
20397;SDS011;10358;49.590;11.030;2022-07-12T11:57:08;0.88;;;0.70;;
20397;SDS011;10358;49.590;11.030;2022-07-12T11:59:36;1.23;;;0.90;;
20397;SDS011;10358;49.590;11.030;2022-07-12T12:02:02;1.83;;;0.80;;
20397;SDS011;10358;49.590;11.030;2022-07-12T12:04:28;2.17;;;1.00;;
20397;SDS011;10358;49.590;11.030;2022-07-12T12:06:54;0.70;;;0.70;;
20397;SDS011;10358;49.590;11.030;2022-07-12T12:09:19;1.30;;;0.80;;
20397;SDS011;10358;49.590;11.030;2022-07-12T12:11:45;3.47;;;0.90;;
20397;SDS011;10358;49.590;11.030;2022-07-12T12:14:11;2.67;;;0.88;;
20397;SDS011;10358;49.590;11.030;2022-07-12T12:16:36;3.67;;;0.70;;
20397;SDS011;10358;49.590;11.030;2022-07-12T12:19:03;0.80;;;0.70;;
20397;SDS011;10358;49.590;11.030;2022-07-12T12:21:28;2.80;;;0.70;;
20397;SDS011;10358;49.590;11.030;2022-07-12T12:24:07;0.80;;;0.60;;
20397;SDS011;10358;49.590;11.030;2022-07-12T12:26:35;0.77;;;0.70;;
20397;SDS011;10358;49.590;11.030;2022-07-12T12:29:01;1.20;;;0.70;;
20397;SDS011;10358;49.590;11.030;2022-07-12T12:31:27;2.13;;;0.70;;
20397;SDS011;10358;49.590;11.030;2022-07-12T12:33:54;0.73;;;0.73;;
20397;SDS011;10358;49.590;11.030;2022-07-12T12:38:49;0.60;;;0.60;;
20397;SDS011;10358;49.590;11.030;2022-07-12T12:41:23;0.80;;;0.65;;
20397;SDS011;10358;49.590;11.030;2022-07-12T12:46:42;0.70;;;0.70;;
20397;SDS011;10358;49.590;11.030;2022-07-12T12:49:09;0.80;;;0.80;;
20397;SDS011;10358;49.590;11.030;2022-07-12T12:51:49;2.20;;;0.70;;
20397;SDS011;10358;49.590;11.030;2022-07-12T12:54:30;1.45;;;0.70;;
20397;SDS011;10358;49.590;11.030;2022-07-12T12:56:56;0.80;;;0.70;;
20397;SDS011;10358;49.590;11.030;2022-07-12T12:59:21;3.95;;;0.80;;
20397;SDS011;10358;49.590;11.030;2022-07-12T13:01:47;0.85;;;0.80;;
20397;SDS011;10358;49.590;11.030;2022-07-12T13:04:12;0.73;;;0.73;;
20397;SDS011;10358;49.590;11.030;2022-07-12T13:06:38;0.60;;;0.60;;
20397;SDS011;10358;49.590;11.030;2022-07-12T13:09:03;2.60;;;0.75;;
20397;SDS011;10358;49.590;11.030;2022-07-12T13:11:29;2.45;;;0.70;;
20397;SDS011;10358;49.590;11.030;2022-07-12T13:13:54;1.33;;;0.70;;
20397;SDS011;10358;49.590;11.030;2022-07-12T13:16:20;0.98;;;0.80;;
20397;SDS011;10358;49.590;11.030;2022-07-12T13:18:46;2.60;;;0.70;;
20397;SDS011;10358;49.590;11.030;2022-07-12T13:21:12;1.58;;;0.90;;
20397;SDS011;10358;49.590;11.030;2022-07-12T13:23:37;1.02;;;0.60;;
20397;SDS011;10358;49.590;11.030;2022-07-12T13:26:03;0.98;;;0.60;;
20397;SDS011;10358;49.590;11.030;2022-07-12T13:28:29;0.77;;;0.50;;
20397;SDS011;10358;49.590;11.030;2022-07-12T13:30:56;0.90;;;0.70;;
20397;SDS011;10358;49.590;11.030;2022-07-12T13:33:23;0.82;;;0.80;;
20397;SDS011;10358;49.590;11.030;2022-07-12T13:35:49;0.88;;;0.60;;
20397;SDS011;10358;49.590;11.030;2022-07-12T13:38:14;1.92;;;0.60;;
20397;SDS011;10358;49.590;11.030;2022-07-12T13:40:40;0.93;;;0.70;;
20397;SDS011;10358;49.590;11.030;2022-07-12T13:43:05;0.85;;;0.55;;
20397;SDS011;10358;49.590;11.030;2022-07-12T13:45:31;0.65;;;0.60;;
20397;SDS011;10358;49.590;11.030;2022-07-12T13:47:57;3.30;;;0.82;;
20397;SDS011;10358;49.590;11.030;2022-07-12T13:50:25;0.50;;;0.50;;
20397;SDS011;10358;49.590;11.030;2022-07-12T13:52:51;3.80;;;0.60;;
20397;SDS011;10358;49.590;11.030;2022-07-12T13:55:17;2.15;;;0.50;;
20397;SDS011;10358;49.590;11.030;2022-07-12T13:57:43;3.28;;;0.68;;
20397;SDS011;10358;49.590;11.030;2022-07-12T14:00:09;0.60;;;0.60;;
20397;SDS011;10358;49.590;11.030;2022-07-12T14:02:38;1.48;;;0.60;;
20397;SDS011;10358;49.590;11.030;2022-07-12T14:05:06;2.13;;;0.60;;
20397;SDS011;10358;49.590;11.030;2022-07-12T14:07:32;1.13;;;0.70;;
20397;SDS011;10358;49.590;11.030;2022-07-12T14:09:59;0.40;;;0.40;;
20397;SDS011;10358;49.590;11.030;2022-07-12T14:12:25;1.40;;;0.70;;
20397;SDS011;10358;49.590;11.030;2022-07-12T14:14:51;2.47;;;0.60;;
20397;SDS011;10358;49.590;11.030;2022-07-12T14:17:42;0.85;;;0.80;;
20397;SDS011;10358;49.590;11.030;2022-07-12T14:20:09;0.60;;;0.50;;
20397;SDS011;10358;49.590;11.030;2022-07-12T14:22:37;1.60;;;0.68;;
20397;SDS011;10358;49.590;11.030;2022-07-12T14:25:03;0.75;;;0.60;;
20397;SDS011;10358;49.590;11.030;2022-07-12T14:27:36;1.15;;;0.45;;
20397;SDS011;10358;49.590;11.030;2022-07-12T14:30:03;0.60;;;0.60;;
20397;SDS011;10358;49.590;11.030;2022-07-12T14:32:31;0.57;;;0.50;;
20397;SDS011;10358;49.590;11.030;2022-07-12T14:34:57;0.50;;;0.50;;
20397;SDS011;10358;49.590;11.030;2022-07-12T14:37:22;2.05;;;0.60;;
20397;SDS011;10358;49.590;11.030;2022-07-12T14:39:48;0.77;;;0.60;;
20397;SDS011;10358;49.590;11.030;2022-07-12T14:42:14;1.00;;;0.60;;
20397;SDS011;10358;49.590;11.030;2022-07-12T14:44:40;1.20;;;0.50;;
20397;SDS011;10358;49.590;11.030;2022-07-12T14:47:05;0.43;;;0.43;;
20397;SDS011;10358;49.590;11.030;2022-07-12T14:49:31;1.48;;;0.60;;
20397;SDS011;10358;49.590;11.030;2022-07-12T14:51:57;1.00;;;0.60;;
20397;SDS011;10358;49.590;11.030;2022-07-12T14:54:23;0.47;;;0.47;;